sensor_id;sensor_type;location;lat;lon;timestamp;temperature;humidity
20041;DHT22;10181;48.072;9.884;2023-04-03T00:01:31;2.50;99.90
20041;DHT22;10181;48.072;9.884;2023-04-03T00:03:56;2.40;99.90
20041;DHT22;10181;48.072;9.884;2023-04-03T00:06:23;2.50;99.90
20041;DHT22;10181;48.072;9.884;2023-04-03T00:08:49;2.40;99.90
20041;DHT22;10181;48.072;9.884;2023-04-03T00:11:15;2.30;99.90
20041;DHT22;10181;48.072;9.884;2023-04-03T00:13:42;2.30;99.90
20041;DHT22;10181;48.072;9.884;2023-04-03T00:16:09;2.20;99.90
20041;DHT22;10181;48.072;9.884;2023-04-03T00:18:36;2.10;99.90
20041;DHT22;10181;48.072;9.884;2023-04-03T00:21:03;2.10;99.90
20041;DHT22;10181;48.072;9.884;2023-04-03T00:23:28;2.10;99.90
20041;DHT22;10181;48.072;9.884;2023-04-03T00:25:54;2.00;99.90
20041;DHT22;10181;48.072;9.884;2023-04-03T00:28:21;1.90;99.90
20041;DHT22;10181;48.072;9.884;2023-04-03T00:30:48;1.90;99.90
20041;DHT22;10181;48.072;9.884;2023-04-03T00:33:14;1.90;99.90
20041;DHT22;10181;48.072;9.884;2023-04-03T00:35:40;1.90;99.90
20041;DHT22;10181;48.072;9.884;2023-04-03T00:38:06;1.80;99.90
20041;DHT22;10181;48.072;9.884;2023-04-03T00:40:37;1.80;99.90
20041;DHT22;10181;48.072;9.884;2023-04-03T00:43:21;1.80;99.90
20041;DHT22;10181;48.072;9.884;2023-04-03T00:45:49;1.70;99.90
20041;DHT22;10181;48.072;9.884;2023-04-03T00:48:21;1.70;99.90
20041;DHT22;10181;48.072;9.884;2023-04-03T00:50:48;1.70;99.90
20041;DHT22;10181;48.072;9.884;2023-04-03T00:53:19;1.80;99.90
20041;DHT22;10181;48.072;9.884;2023-04-03T00:55:48;1.80;99.90
20041;DHT22;10181;48.072;9.884;2023-04-03T00:58:16;1.80;99.90
20041;DHT22;10181;48.072;9.884;2023-04-03T01:00:47;1.80;99.90
20041;DHT22;10181;48.072;9.884;2023-04-03T01:03:13;1.80;99.90
20041;DHT22;10181;48.072;9.884;2023-04-03T01:05:39;1.80;99.90
20041;DHT22;10181;48.072;9.884;2023-04-03T01:08:06;1.90;99.90
20041;DHT22;10181;48.072;9.884;2023-04-03T01:10:32;1.90;99.90
20041;DHT22;10181;48.072;9.884;2023-04-03T01:12:59;2.00;99.90
20041;DHT22;10181;48.072;9.884;2023-04-03T01:15:27;1.90;99.90
20041;DHT22;10181;48.072;9.884;2023-04-03T01:17:56;1.90;99.90
20041;DHT22;10181;48.072;9.884;2023-04-03T01:25:37;1.80;99.90
20041;DHT22;10181;48.072;9.884;2023-04-03T01:28:05;1.80;99.90
20041;DHT22;10181;48.072;9.884;2023-04-03T01:30:48;1.80;99.90
20041;DHT22;10181;48.072;9.884;2023-04-03T01:33:15;1.80;99.90
20041;DHT22;10181;48.072;9.884;2023-04-03T01:35:41;1.80;99.90
20041;DHT22;10181;48.072;9.884;2023-04-03T01:38:06;1.80;99.90
20041;DHT22;10181;48.072;9.884;2023-04-03T01:40:32;1.80;99.90
20041;DHT22;10181;48.072;9.884;2023-04-03T01:42:58;1.80;99.90
20041;DHT22;10181;48.072;9.884;2023-04-03T01:45:24;1.80;99.90
20041;DHT22;10181;48.072;9.884;2023-04-03T01:47:49;1.80;99.90
20041;DHT22;10181;48.072;9.884;2023-04-03T01:50:15;1.80;99.90
20041;DHT22;10181;48.072;9.884;2023-04-03T01:52:41;1.70;99.90
20041;DHT22;10181;48.072;9.884;2023-04-03T01:55:06;1.80;99.90
20041;DHT22;10181;48.072;9.884;2023-04-03T01:57:32;1.70;99.90
20041;DHT22;10181;48.072;9.884;2023-04-03T01:59:58;1.70;99.90
20041;DHT22;10181;48.072;9.884;2023-04-03T02:02:23;1.70;99.90
20041;DHT22;10181;48.072;9.884;2023-04-03T02:04:49;1.70;99.90
20041;DHT22;10181;48.072;9.884;2023-04-03T02:07:14;1.70;99.90
20041;DHT22;10181;48.072;9.884;2023-04-03T02:09:40;1.60;99.90
20041;DHT22;10181;48.072;9.884;2023-04-03T02:12:06;1.60;99.90
20041;DHT22;10181;48.072;9.884;2023-04-03T02:14:31;1.60;99.90
20041;DHT22;10181;48.072;9.884;2023-04-03T02:16:57;1.60;99.90
20041;DHT22;10181;48.072;9.884;2023-04-03T02:19:23;1.60;99.90
20041;DHT22;10181;48.072;9.884;2023-04-03T02:21:48;1.60;99.90
20041;DHT22;10181;48.072;9.884;2023-04-03T02:24:14;1.50;99.90
20041;DHT22;10181;48.072;9.884;2023-04-03T02:26:40;1.50;99.90
20041;DHT22;10181;48.072;9.884;2023-04-03T02:29:05;1.50;99.90
20041;DHT22;10181;48.072;9.884;2023-04-03T02:31:31;1.60;99.90
20041;DHT22;10181;48.072;9.884;2023-04-03T02:33:56;1.50;99.90
20041;DHT22;10181;48.072;9.884;2023-04-03T02:36:22;1.50;99.90
20041;DHT22;10181;48.072;9.884;2023-04-03T02:38:48;1.50;99.90
20041;DHT22;10181;48.072;9.884;2023-04-03T02:41:13;1.50;99.90
20041;DHT22;10181;48.072;9.884;2023-04-03T02:43:39;1.60;99.90
20041;DHT22;10181;48.072;9.884;2023-04-03T02:46:06;1.60;99.90
20041;DHT22;10181;48.072;9.884;2023-04-03T02:48:32;1.60;99.90
20041;DHT22;10181;48.072;9.884;2023-04-03T02:50:58;1.60;99.90
20041;DHT22;10181;48.072;9.884;2023-04-03T02:53:23;1.60;99.90
20041;DHT22;10181;48.072;9.884;2023-04-03T02:55:49;1.60;99.90
20041;DHT22;10181;48.072;9.884;2023-04-03T02:58:15;1.60;99.90
20041;DHT22;10181;48.072;9.884;2023-04-03T03:00:41;1.60;99.90
20041;DHT22;10181;48.072;9.884;2023-04-03T03:03:07;1.70;99.90
20041;DHT22;10181;48.072;9.884;2023-04-03T03:05:33;1.60;99.90
20041;DHT22;10181;48.072;9.884;2023-04-03T03:07:59;1.60;99.90
20041;DHT22;10181;48.072;9.884;2023-04-03T03:10:25;1.60;99.90
20041;DHT22;10181;48.072;9.884;2023-04-03T03:12:50;1.60;99.90
20041;DHT22;10181;48.072;9.884;2023-04-03T03:15:17;1.60;99.90
20041;DHT22;10181;48.072;9.884;2023-04-03T03:17:44;1.60;99.90
20041;DHT22;10181;48.072;9.884;2023-04-03T03:20:11;1.60;99.90
20041;DHT22;10181;48.072;9.884;2023-04-03T03:22:37;1.60;99.90
20041;DHT22;10181;48.072;9.884;2023-04-03T03:25:03;1.60;99.90
20041;DHT22;10181;48.072;9.884;2023-04-03T03:27:29;1.60;99.90
20041;DHT22;10181;48.072;9.884;2023-04-03T03:29:54;1.60;99.90
20041;DHT22;10181;48.072;9.884;2023-04-03T03:32:20;1.60;99.90
20041;DHT22;10181;48.072;9.884;2023-04-03T03:34:46;1.60;99.90
20041;DHT22;10181;48.072;9.884;2023-04-03T03:37:12;1.60;99.90
20041;DHT22;10181;48.072;9.884;2023-04-03T03:39:37;1.60;99.90
20041;DHT22;10181;48.072;9.884;2023-04-03T03:42:03;1.60;99.90
20041;DHT22;10181;48.072;9.884;2023-04-03T03:44:29;1.50;99.90
20041;DHT22;10181;48.072;9.884;2023-04-03T03:46:55;1.50;99.90
20041;DHT22;10181;48.072;9.884;2023-04-03T03:49:21;1.50;99.90
20041;DHT22;10181;48.072;9.884;2023-04-03T03:51:47;1.50;99.90
20041;DHT22;10181;48.072;9.884;2023-04-03T03:54:13;1.50;99.90
20041;DHT22;10181;48.072;9.884;2023-04-03T03:56:38;1.60;99.90
20041;DHT22;10181;48.072;9.884;2023-04-03T03:59:04;1.60;99.90
20041;DHT22;10181;48.072;9.884;2023-04-03T04:01:30;1.60;99.90
20041;DHT22;10181;48.072;9.884;2023-04-03T04:03:56;1.60;99.90
20041;DHT22;10181;48.072;9.884;2023-04-03T04:06:22;1.60;99.90
20041;DHT22;10181;48.072;9.884;2023-04-03T04:08:47;1.60;99.90
20041;DHT22;10181;48.072;9.884;2023-04-03T04:11:13;1.50;99.90
20041;DHT22;10181;48.072;9.884;2023-04-03T04:13:39;1.50;99.90
20041;DHT22;10181;48.072;9.884;2023-04-03T04:16:05;1.50;99.90
20041;DHT22;10181;48.072;9.884;2023-04-03T04:18:30;1.50;99.90
20041;DHT22;10181;48.072;9.884;2023-04-03T04:20:56;1.60;99.90
20041;DHT22;10181;48.072;9.884;2023-04-03T04:23:22;1.60;99.90
20041;DHT22;10181;48.072;9.884;2023-04-03T04:25:48;1.60;99.90
20041;DHT22;10181;48.072;9.884;2023-04-03T04:28:14;1.60;99.90
20041;DHT22;10181;48.072;9.884;2023-04-03T04:30:40;1.60;99.90
20041;DHT22;10181;48.072;9.884;2023-04-03T04:33:06;1.60;99.90
20041;DHT22;10181;48.072;9.884;2023-04-03T04:35:32;1.60;99.90
20041;DHT22;10181;48.072;9.884;2023-04-03T04:37:58;1.60;99.90
20041;DHT22;10181;48.072;9.884;2023-04-03T04:40:24;1.60;99.90
20041;DHT22;10181;48.072;9.884;2023-04-03T04:42:50;1.60;99.90
20041;DHT22;10181;48.072;9.884;2023-04-03T04:45:15;1.60;99.90
20041;DHT22;10181;48.072;9.884;2023-04-03T04:47:41;1.60;99.90
20041;DHT22;10181;48.072;9.884;2023-04-03T04:50:07;1.60;99.90
20041;DHT22;10181;48.072;9.884;2023-04-03T04:52:33;1.70;99.90
20041;DHT22;10181;48.072;9.884;2023-04-03T04:54:58;1.60;99.90
20041;DHT22;10181;48.072;9.884;2023-04-03T04:57:24;1.60;99.90
20041;DHT22;10181;48.072;9.884;2023-04-03T04:59:50;1.70;99.90
20041;DHT22;10181;48.072;9.884;2023-04-03T05:02:15;1.60;99.90
20041;DHT22;10181;48.072;9.884;2023-04-03T05:04:41;1.60;99.90
20041;DHT22;10181;48.072;9.884;2023-04-03T05:07:07;1.60;99.90
20041;DHT22;10181;48.072;9.884;2023-04-03T05:09:32;1.60;99.90
20041;DHT22;10181;48.072;9.884;2023-04-03T05:11:58;1.60;99.90
20041;DHT22;10181;48.072;9.884;2023-04-03T05:14:29;1.60;99.90
20041;DHT22;10181;48.072;9.884;2023-04-03T05:16:55;1.60;99.90
20041;DHT22;10181;48.072;9.884;2023-04-03T05:19:21;1.70;99.90
20041;DHT22;10181;48.072;9.884;2023-04-03T05:21:50;1.60;99.90
20041;DHT22;10181;48.072;9.884;2023-04-03T05:24:16;1.60;99.90
20041;DHT22;10181;48.072;9.884;2023-04-03T05:26:42;1.60;99.90
20041;DHT22;10181;48.072;9.884;2023-04-03T05:29:08;1.70;99.90
20041;DHT22;10181;48.072;9.884;2023-04-03T05:31:34;1.60;99.90
20041;DHT22;10181;48.072;9.884;2023-04-03T05:34:00;1.60;99.90
20041;DHT22;10181;48.072;9.884;2023-04-03T05:36:29;1.70;99.90
20041;DHT22;10181;48.072;9.884;2023-04-03T05:38:55;1.70;99.90
20041;DHT22;10181;48.072;9.884;2023-04-03T05:41:21;1.70;99.90
20041;DHT22;10181;48.072;9.884;2023-04-03T05:43:47;1.80;99.90
20041;DHT22;10181;48.072;9.884;2023-04-03T05:46:15;1.80;99.90
20041;DHT22;10181;48.072;9.884;2023-04-03T05:48:42;1.80;99.90
20041;DHT22;10181;48.072;9.884;2023-04-03T05:51:14;1.80;99.90
20041;DHT22;10181;48.072;9.884;2023-04-03T05:53:41;1.80;99.90
20041;DHT22;10181;48.072;9.884;2023-04-03T05:56:07;1.80;99.90
20041;DHT22;10181;48.072;9.884;2023-04-03T05:58:33;1.80;99.90
20041;DHT22;10181;48.072;9.884;2023-04-03T06:00:58;1.80;99.90
20041;DHT22;10181;48.072;9.884;2023-04-03T06:03:25;1.80;99.90
20041;DHT22;10181;48.072;9.884;2023-04-03T06:05:51;1.80;99.90
20041;DHT22;10181;48.072;9.884;2023-04-03T06:08:16;1.90;99.90
20041;DHT22;10181;48.072;9.884;2023-04-03T06:10:42;1.90;99.90
20041;DHT22;10181;48.072;9.884;2023-04-03T06:13:08;1.80;99.90
20041;DHT22;10181;48.072;9.884;2023-04-03T06:15:33;1.90;99.90
20041;DHT22;10181;48.072;9.884;2023-04-03T06:17:59;1.90;99.90
20041;DHT22;10181;48.072;9.884;2023-04-03T06:20:25;1.90;99.90
20041;DHT22;10181;48.072;9.884;2023-04-03T06:22:51;1.90;99.90
20041;DHT22;10181;48.072;9.884;2023-04-03T06:25:16;2.00;99.90
20041;DHT22;10181;48.072;9.884;2023-04-03T06:27:44;2.00;99.90
20041;DHT22;10181;48.072;9.884;2023-04-03T06:30:10;2.00;99.90
20041;DHT22;10181;48.072;9.884;2023-04-03T06:32:36;2.00;99.90
20041;DHT22;10181;48.072;9.884;2023-04-03T06:35:02;2.00;99.90
20041;DHT22;10181;48.072;9.884;2023-04-03T06:37:28;2.10;99.90
20041;DHT22;10181;48.072;9.884;2023-04-03T06:39:55;2.10;99.90
20041;DHT22;10181;48.072;9.884;2023-04-03T06:42:21;2.10;99.90
20041;DHT22;10181;48.072;9.884;2023-04-03T06:44:47;2.10;99.90
20041;DHT22;10181;48.072;9.884;2023-04-03T06:47:14;2.10;99.90
20041;DHT22;10181;48.072;9.884;2023-04-03T06:49:39;2.10;99.90
20041;DHT22;10181;48.072;9.884;2023-04-03T06:52:05;2.10;99.90
20041;DHT22;10181;48.072;9.884;2023-04-03T06:54:31;2.20;99.90
20041;DHT22;10181;48.072;9.884;2023-04-03T06:56:57;2.20;99.90
20041;DHT22;10181;48.072;9.884;2023-04-03T06:59:23;2.20;99.90
20041;DHT22;10181;48.072;9.884;2023-04-03T07:01:49;2.20;99.90
20041;DHT22;10181;48.072;9.884;2023-04-03T07:04:15;2.20;99.90
20041;DHT22;10181;48.072;9.884;2023-04-03T07:06:41;2.20;99.90
20041;DHT22;10181;48.072;9.884;2023-04-03T07:09:08;2.30;99.90
20041;DHT22;10181;48.072;9.884;2023-04-03T07:11:34;2.30;99.90
20041;DHT22;10181;48.072;9.884;2023-04-03T07:14:01;2.40;99.90
20041;DHT22;10181;48.072;9.884;2023-04-03T07:16:27;2.40;99.90
20041;DHT22;10181;48.072;9.884;2023-04-03T07:18:53;2.50;99.90
20041;DHT22;10181;48.072;9.884;2023-04-03T07:21:18;2.50;99.90
20041;DHT22;10181;48.072;9.884;2023-04-03T07:23:44;2.50;99.90
20041;DHT22;10181;48.072;9.884;2023-04-03T07:26:10;2.60;99.90
20041;DHT22;10181;48.072;9.884;2023-04-03T07:28:35;2.50;99.90
20041;DHT22;10181;48.072;9.884;2023-04-03T07:31:04;2.50;99.90
20041;DHT22;10181;48.072;9.884;2023-04-03T07:33:32;2.50;99.90
20041;DHT22;10181;48.072;9.884;2023-04-03T07:35:58;2.60;99.90
20041;DHT22;10181;48.072;9.884;2023-04-03T07:38:24;2.60;99.90
20041;DHT22;10181;48.072;9.884;2023-04-03T07:40:51;2.60;99.90
20041;DHT22;10181;48.072;9.884;2023-04-03T07:43:18;2.60;99.90
20041;DHT22;10181;48.072;9.884;2023-04-03T07:45:46;2.60;99.90
20041;DHT22;10181;48.072;9.884;2023-04-03T07:48:13;2.70;99.90
20041;DHT22;10181;48.072;9.884;2023-04-03T07:50:42;2.70;99.90
20041;DHT22;10181;48.072;9.884;2023-04-03T07:53:08;2.70;99.90
20041;DHT22;10181;48.072;9.884;2023-04-03T07:55:34;2.70;99.90
20041;DHT22;10181;48.072;9.884;2023-04-03T07:58:05;2.70;99.90
20041;DHT22;10181;48.072;9.884;2023-04-03T08:00:31;2.70;99.90
20041;DHT22;10181;48.072;9.884;2023-04-03T08:02:57;2.70;99.90
20041;DHT22;10181;48.072;9.884;2023-04-03T08:05:22;2.70;99.90
20041;DHT22;10181;48.072;9.884;2023-04-03T08:07:48;2.80;99.90
20041;DHT22;10181;48.072;9.884;2023-04-03T08:10:14;2.80;99.90
20041;DHT22;10181;48.072;9.884;2023-04-03T08:12:41;2.90;99.90
20041;DHT22;10181;48.072;9.884;2023-04-03T08:15:07;2.90;99.90
20041;DHT22;10181;48.072;9.884;2023-04-03T08:17:34;2.90;99.90
20041;DHT22;10181;48.072;9.884;2023-04-03T08:20:00;2.90;99.90
20041;DHT22;10181;48.072;9.884;2023-04-03T08:22:26;2.90;99.90
20041;DHT22;10181;48.072;9.884;2023-04-03T08:24:52;2.90;99.90
20041;DHT22;10181;48.072;9.884;2023-04-03T08:27:17;2.90;99.90
20041;DHT22;10181;48.072;9.884;2023-04-03T08:29:43;2.90;99.90
20041;DHT22;10181;48.072;9.884;2023-04-03T08:32:09;2.90;99.90
20041;DHT22;10181;48.072;9.884;2023-04-03T08:34:34;2.90;99.90
20041;DHT22;10181;48.072;9.884;2023-04-03T08:37:02;2.90;99.90
20041;DHT22;10181;48.072;9.884;2023-04-03T08:39:28;2.90;99.90
20041;DHT22;10181;48.072;9.884;2023-04-03T08:41:56;2.90;99.90
20041;DHT22;10181;48.072;9.884;2023-04-03T08:47:30;3.00;99.90
20041;DHT22;10181;48.072;9.884;2023-04-03T08:50:05;3.20;99.90
20041;DHT22;10181;48.072;9.884;2023-04-03T08:52:45;3.30;99.90
20041;DHT22;10181;48.072;9.884;2023-04-03T08:57:43;3.60;99.90
20041;DHT22;10181;48.072;9.884;2023-04-03T09:00:17;3.60;99.90
20041;DHT22;10181;48.072;9.884;2023-04-03T09:02:48;3.70;99.90
20041;DHT22;10181;48.072;9.884;2023-04-03T09:05:20;3.70;99.90
20041;DHT22;10181;48.072;9.884;2023-04-03T09:10:42;3.60;99.90
20041;DHT22;10181;48.072;9.884;2023-04-03T09:13:32;3.60;99.90
20041;DHT22;10181;48.072;9.884;2023-04-03T09:16:02;3.70;99.90
20041;DHT22;10181;48.072;9.884;2023-04-03T09:18:35;3.80;99.90
20041;DHT22;10181;48.072;9.884;2023-04-03T09:23:37;4.10;99.90
20041;DHT22;10181;48.072;9.884;2023-04-03T09:26:11;4.10;99.90
20041;DHT22;10181;48.072;9.884;2023-04-03T09:28:40;4.20;99.90
20041;DHT22;10181;48.072;9.884;2023-04-03T09:31:23;4.30;99.90
20041;DHT22;10181;48.072;9.884;2023-04-03T09:34:02;4.30;99.90
20041;DHT22;10181;48.072;9.884;2023-04-03T09:36:45;4.40;99.90
20041;DHT22;10181;48.072;9.884;2023-04-03T09:39:19;4.30;99.90
20041;DHT22;10181;48.072;9.884;2023-04-03T09:44:25;4.40;99.90
20041;DHT22;10181;48.072;9.884;2023-04-03T09:46:52;4.30;99.90
20041;DHT22;10181;48.072;9.884;2023-04-03T09:49:18;4.30;99.90
20041;DHT22;10181;48.072;9.884;2023-04-03T09:51:45;4.40;99.90
20041;DHT22;10181;48.072;9.884;2023-04-03T09:57:09;4.40;99.90
20041;DHT22;10181;48.072;9.884;2023-04-03T10:02:30;4.60;99.90
20041;DHT22;10181;48.072;9.884;2023-04-03T10:04:57;4.60;99.90
20041;DHT22;10181;48.072;9.884;2023-04-03T10:07:41;4.60;99.90
20041;DHT22;10181;48.072;9.884;2023-04-03T10:10:19;4.60;99.90
20041;DHT22;10181;48.072;9.884;2023-04-03T10:12:48;4.50;99.90
20041;DHT22;10181;48.072;9.884;2023-04-03T10:15:16;4.50;99.90
20041;DHT22;10181;48.072;9.884;2023-04-03T10:18:03;4.40;99.90
20041;DHT22;10181;48.072;9.884;2023-04-03T10:20:40;4.50;99.90
20041;DHT22;10181;48.072;9.884;2023-04-03T10:26:23;4.60;99.90
20041;DHT22;10181;48.072;9.884;2023-04-03T10:34:05;4.90;99.90
20041;DHT22;10181;48.072;9.884;2023-04-03T10:42:03;5.20;99.90
20041;DHT22;10181;48.072;9.884;2023-04-03T10:47:04;5.30;99.90
20041;DHT22;10181;48.072;9.884;2023-04-03T10:57:36;5.20;99.90
20041;DHT22;10181;48.072;9.884;2023-04-03T11:00:51;5.10;99.90
20041;DHT22;10181;48.072;9.884;2023-04-03T11:02:58;5.10;99.90
20041;DHT22;10181;48.072;9.884;2023-04-03T11:05:37;5.10;99.90
20041;DHT22;10181;48.072;9.884;2023-04-03T11:08:21;5.10;99.90
20041;DHT22;10181;48.072;9.884;2023-04-03T11:10:53;5.10;99.90
20041;DHT22;10181;48.072;9.884;2023-04-03T11:13:49;5.10;99.90
20041;DHT22;10181;48.072;9.884;2023-04-03T11:16:21;5.10;99.90
20041;DHT22;10181;48.072;9.884;2023-04-03T11:21:48;5.10;99.90
20041;DHT22;10181;48.072;9.884;2023-04-03T11:24:27;5.20;99.90
20041;DHT22;10181;48.072;9.884;2023-04-03T11:26:55;5.30;99.90
20041;DHT22;10181;48.072;9.884;2023-04-03T11:29:34;5.40;99.90
20041;DHT22;10181;48.072;9.884;2023-04-03T11:34:47;5.60;99.90
20041;DHT22;10181;48.072;9.884;2023-04-03T11:37:34;5.60;99.90
20041;DHT22;10181;48.072;9.884;2023-04-03T11:47:54;5.50;99.90
20041;DHT22;10181;48.072;9.884;2023-04-03T12:05:55;5.00;99.90
20041;DHT22;10181;48.072;9.884;2023-04-03T12:16:41;4.70;99.90
20041;DHT22;10181;48.072;9.884;2023-04-03T12:32:09;5.10;99.90
20041;DHT22;10181;48.072;9.884;2023-04-03T12:35:10;5.50;99.90
20041;DHT22;10181;48.072;9.884;2023-04-03T12:38:20;5.70;99.90
20041;DHT22;10181;48.072;9.884;2023-04-03T12:46:17;6.50;99.90
20041;DHT22;10181;48.072;9.884;2023-04-03T12:48:52;6.60;99.90
20041;DHT22;10181;48.072;9.884;2023-04-03T12:51:28;6.70;99.90
20041;DHT22;10181;48.072;9.884;2023-04-03T12:54:27;6.70;99.90
20041;DHT22;10181;48.072;9.884;2023-04-03T12:57:11;6.70;99.90
20041;DHT22;10181;48.072;9.884;2023-04-03T12:59:37;6.60;99.90
20041;DHT22;10181;48.072;9.884;2023-04-03T13:02:15;6.60;99.90
20041;DHT22;10181;48.072;9.884;2023-04-03T13:04:43;6.70;99.90
20041;DHT22;10181;48.072;9.884;2023-04-03T13:07:39;7.00;99.90
20041;DHT22;10181;48.072;9.884;2023-04-03T13:15:22;6.90;99.90
20041;DHT22;10181;48.072;9.884;2023-04-03T13:17:48;6.80;99.90
20041;DHT22;10181;48.072;9.884;2023-04-03T13:20:28;6.70;99.90
20041;DHT22;10181;48.072;9.884;2023-04-03T13:25:21;6.50;99.90
20041;DHT22;10181;48.072;9.884;2023-04-03T13:27:48;6.40;99.90
20041;DHT22;10181;48.072;9.884;2023-04-03T13:32:51;6.20;99.90
20041;DHT22;10181;48.072;9.884;2023-04-03T13:35:36;6.00;99.90
20041;DHT22;10181;48.072;9.884;2023-04-03T13:40:51;5.80;99.90
20041;DHT22;10181;48.072;9.884;2023-04-03T13:43:21;5.70;99.90
20041;DHT22;10181;48.072;9.884;2023-04-03T13:46:01;5.60;99.90
20041;DHT22;10181;48.072;9.884;2023-04-03T13:48:51;5.60;99.90
20041;DHT22;10181;48.072;9.884;2023-04-03T13:51:26;5.50;99.90
20041;DHT22;10181;48.072;9.884;2023-04-03T13:56:58;5.40;99.90
20041;DHT22;10181;48.072;9.884;2023-04-03T13:59:32;5.30;99.90
20041;DHT22;10181;48.072;9.884;2023-04-03T14:04:43;5.30;99.90
20041;DHT22;10181;48.072;9.884;2023-04-03T14:07:14;5.40;99.90
20041;DHT22;10181;48.072;9.884;2023-04-03T14:09:40;5.30;99.90
20041;DHT22;10181;48.072;9.884;2023-04-03T14:12:08;5.30;99.90
20041;DHT22;10181;48.072;9.884;2023-04-03T14:14:37;5.30;99.90
20041;DHT22;10181;48.072;9.884;2023-04-03T14:17:18;5.40;99.90
20041;DHT22;10181;48.072;9.884;2023-04-03T14:19:44;5.40;99.90
20041;DHT22;10181;48.072;9.884;2023-04-03T14:22:26;5.40;99.90
20041;DHT22;10181;48.072;9.884;2023-04-03T14:24:54;5.50;99.90
20041;DHT22;10181;48.072;9.884;2023-04-03T14:27:26;5.50;99.90
20041;DHT22;10181;48.072;9.884;2023-04-03T14:29:54;5.60;99.90
20041;DHT22;10181;48.072;9.884;2023-04-03T14:32:22;5.60;99.90
20041;DHT22;10181;48.072;9.884;2023-04-03T14:34:48;5.40;99.90
20041;DHT22;10181;48.072;9.884;2023-04-03T14:37:21;5.30;99.90
20041;DHT22;10181;48.072;9.884;2023-04-03T14:39:51;5.20;99.90
20041;DHT22;10181;48.072;9.884;2023-04-03T14:42:20;5.10;99.90
20041;DHT22;10181;48.072;9.884;2023-04-03T14:44:46;5.10;99.90
20041;DHT22;10181;48.072;9.884;2023-04-03T14:47:14;5.00;99.90
20041;DHT22;10181;48.072;9.884;2023-04-03T14:49:40;4.90;99.90
20041;DHT22;10181;48.072;9.884;2023-04-03T14:52:22;5.00;99.90
20041;DHT22;10181;48.072;9.884;2023-04-03T14:54:49;5.00;99.90
20041;DHT22;10181;48.072;9.884;2023-04-03T14:57:16;5.10;99.90
20041;DHT22;10181;48.072;9.884;2023-04-03T14:59:43;5.20;99.90
20041;DHT22;10181;48.072;9.884;2023-04-03T15:02:36;5.20;99.90
20041;DHT22;10181;48.072;9.884;2023-04-03T15:05:04;5.30;99.90
20041;DHT22;10181;48.072;9.884;2023-04-03T15:07:39;5.40;99.90
20041;DHT22;10181;48.072;9.884;2023-04-03T15:10:27;5.60;99.90
20041;DHT22;10181;48.072;9.884;2023-04-03T15:12:53;5.70;99.90
20041;DHT22;10181;48.072;9.884;2023-04-03T15:15:20;5.80;99.90
20041;DHT22;10181;48.072;9.884;2023-04-03T15:17:47;5.90;99.90
20041;DHT22;10181;48.072;9.884;2023-04-03T15:20:20;5.90;99.90
20041;DHT22;10181;48.072;9.884;2023-04-03T15:22:45;5.80;99.90
20041;DHT22;10181;48.072;9.884;2023-04-03T15:25:11;5.70;99.90
20041;DHT22;10181;48.072;9.884;2023-04-03T15:27:38;5.50;99.90
20041;DHT22;10181;48.072;9.884;2023-04-03T15:30:05;5.40;99.90
20041;DHT22;10181;48.072;9.884;2023-04-03T15:32:31;5.30;99.90
20041;DHT22;10181;48.072;9.884;2023-04-03T15:34:56;5.20;99.90
20041;DHT22;10181;48.072;9.884;2023-04-03T15:37:22;5.20;99.90
20041;DHT22;10181;48.072;9.884;2023-04-03T15:39:48;5.20;99.90
20041;DHT22;10181;48.072;9.884;2023-04-03T15:42:14;5.20;99.90
20041;DHT22;10181;48.072;9.884;2023-04-03T15:44:39;5.20;99.90
20041;DHT22;10181;48.072;9.884;2023-04-03T15:47:05;5.30;99.90
20041;DHT22;10181;48.072;9.884;2023-04-03T15:49:32;5.30;99.90
20041;DHT22;10181;48.072;9.884;2023-04-03T15:51:59;5.30;99.90
20041;DHT22;10181;48.072;9.884;2023-04-03T15:54:25;5.30;99.90
20041;DHT22;10181;48.072;9.884;2023-04-03T15:56:52;5.40;99.90
20041;DHT22;10181;48.072;9.884;2023-04-03T15:59:18;5.40;99.90
20041;DHT22;10181;48.072;9.884;2023-04-03T16:01:44;5.30;99.90
20041;DHT22;10181;48.072;9.884;2023-04-03T16:04:10;5.30;99.90
20041;DHT22;10181;48.072;9.884;2023-04-03T16:06:36;5.30;99.90
20041;DHT22;10181;48.072;9.884;2023-04-03T16:09:03;5.30;99.90
20041;DHT22;10181;48.072;9.884;2023-04-03T16:11:29;5.20;99.90
20041;DHT22;10181;48.072;9.884;2023-04-03T16:13:55;5.10;99.90
20041;DHT22;10181;48.072;9.884;2023-04-03T16:16:21;5.00;99.90
20041;DHT22;10181;48.072;9.884;2023-04-03T16:18:47;4.90;99.90
20041;DHT22;10181;48.072;9.884;2023-04-03T16:21:14;4.80;99.90
20041;DHT22;10181;48.072;9.884;2023-04-03T16:23:41;4.70;99.90
20041;DHT22;10181;48.072;9.884;2023-04-03T16:26:07;4.70;99.90
20041;DHT22;10181;48.072;9.884;2023-04-03T16:28:33;4.60;99.90
20041;DHT22;10181;48.072;9.884;2023-04-03T16:31:00;4.50;99.90
20041;DHT22;10181;48.072;9.884;2023-04-03T16:33:26;4.50;99.90
20041;DHT22;10181;48.072;9.884;2023-04-03T16:35:52;4.50;99.90
20041;DHT22;10181;48.072;9.884;2023-04-03T16:38:17;4.40;99.90
20041;DHT22;10181;48.072;9.884;2023-04-03T16:40:47;4.40;99.90
20041;DHT22;10181;48.072;9.884;2023-04-03T16:43:14;4.40;99.90
20041;DHT22;10181;48.072;9.884;2023-04-03T16:45:40;4.40;99.90
20041;DHT22;10181;48.072;9.884;2023-04-03T16:48:05;4.40;99.90
20041;DHT22;10181;48.072;9.884;2023-04-03T16:50:31;4.30;99.90
20041;DHT22;10181;48.072;9.884;2023-04-03T16:52:57;4.30;99.90
20041;DHT22;10181;48.072;9.884;2023-04-03T16:55:23;4.20;99.90
20041;DHT22;10181;48.072;9.884;2023-04-03T16:57:48;4.20;99.90
20041;DHT22;10181;48.072;9.884;2023-04-03T17:00:14;4.20;99.90
20041;DHT22;10181;48.072;9.884;2023-04-03T17:02:40;4.20;99.90
20041;DHT22;10181;48.072;9.884;2023-04-03T17:05:07;4.30;99.90
20041;DHT22;10181;48.072;9.884;2023-04-03T17:07:33;4.30;99.90
20041;DHT22;10181;48.072;9.884;2023-04-03T17:09:58;4.40;99.90
20041;DHT22;10181;48.072;9.884;2023-04-03T17:15:04;4.40;99.90
20041;DHT22;10181;48.072;9.884;2023-04-03T17:17:30;4.40;99.90
20041;DHT22;10181;48.072;9.884;2023-04-03T17:19:56;4.30;99.90
20041;DHT22;10181;48.072;9.884;2023-04-03T17:22:22;4.30;99.90
20041;DHT22;10181;48.072;9.884;2023-04-03T17:24:47;4.30;99.90
20041;DHT22;10181;48.072;9.884;2023-04-03T17:27:13;4.30;99.90
20041;DHT22;10181;48.072;9.884;2023-04-03T17:29:38;4.30;99.90
20041;DHT22;10181;48.072;9.884;2023-04-03T17:32:04;4.20;99.90
20041;DHT22;10181;48.072;9.884;2023-04-03T17:34:30;4.20;99.90
20041;DHT22;10181;48.072;9.884;2023-04-03T17:36:56;4.20;99.90
20041;DHT22;10181;48.072;9.884;2023-04-03T17:39:21;4.10;99.90
20041;DHT22;10181;48.072;9.884;2023-04-03T17:41:47;4.00;99.90
20041;DHT22;10181;48.072;9.884;2023-04-03T17:44:14;4.00;99.90
20041;DHT22;10181;48.072;9.884;2023-04-03T17:46:39;3.90;99.90
20041;DHT22;10181;48.072;9.884;2023-04-03T17:49:05;3.90;99.90
20041;DHT22;10181;48.072;9.884;2023-04-03T17:51:31;3.80;99.90
20041;DHT22;10181;48.072;9.884;2023-04-03T17:53:59;3.80;99.90
20041;DHT22;10181;48.072;9.884;2023-04-03T17:56:25;3.80;99.90
20041;DHT22;10181;48.072;9.884;2023-04-03T17:58:55;3.70;99.90